Saturday, November 18, 2017, 11:48 PM EST
Back to Local

KAUG, Augusta State Airport

Location: Augusta, ME, United States Lat: 44.317
Local Time: 11:48 PM EST ( 4:48 GMT) Lon: -69.8
Time Zone: US/Eastern Elev: 351 ft

Show me the last for .
Show Decoded

2017-11-18 23:00 METAR KAUG 190400Z AUTO 34005KT 3SM -RA BR OVC004 02/01 A2955 RMK AO2 P0000
                 T00170006 =
2017-11-18 22:53 METAR KAUG 190353Z AUTO 32005KT 4SM -RA BR OVC005 02/01 A2955 RMK AO2 SLP011
                 P0004 T00170006 =
2017-11-18 21:53 METAR KAUG 190253Z AUTO 33003KT 5SM -RA BR OVC007 02/00 A2959 RMK AO2 RAE01B31
                 SLP025 P0001 60001 I1000 I3000 T00170000 58030 =
2017-11-18 21:32 METAR KAUG 190232Z AUTO 35004KT 5SM -RA BR BKN008 OVC012 02/00 A2961 RMK AO2
                 RAE01B31 CIG 007V010 P0000 T00170000 =
2017-11-18 21:07 METAR KAUG 190207Z AUTO 35004KT 10SM BKN014 OVC023 02/00 A2962 RMK AO2 RAE01
                 P0000 T00220000 =
2017-11-18 20:53 METAR KAUG 190153Z AUTO 13003KT 10SM -RA SCT016 OVC023 03/M01 A2963 RMK AO2
                 RAE02B19 SLP038 P0000 T00281006 =
2017-11-18 20:22 METAR KAUG 190122Z AUTO 16006KT 9SM -RA BKN023 BKN030 OVC040 03/M02 A2966 RMK
                 AO2 RAE02B19 P0000 T00331022 =
2017-11-18 20:14 METAR KAUG 190114Z AUTO 16007KT 10SM SCT025 BKN033 OVC042 03/M03 A2966 RMK AO2
                 RAE02 P0000 T00281028 =
2017-11-18 19:53 METAR KAUG 190053Z AUTO 18004KT 10SM -RA BKN027 OVC035 03/M03 A2968 RMK AO2
                 RAB51 SLP055 P0000 T00281033 =
2017-11-18 19:48 METAR KAUG 190048Z AUTO 18005KT 10SM BKN027 OVC035 03/M04 A2968 RMK AO2 =
2017-11-18 18:53 METAR KAUG 182353Z AUTO 10004KT 10SM BKN035 OVC044 03/M05 A2971 RMK AO2 SLP064
                 T00281050 10044 20028 56016 =
2017-11-18 17:53 METAR KAUG 182253Z AUTO 15007KT 10SM OVC100 03/M06 A2972 RMK AO2 SLP070
                 T00281061 =
2017-11-18 16:53 METAR KAUG 182153Z AUTO 15006KT 10SM OVC110 03/M09 A2973 RMK AO2 SLP070
                 T00281089 =
2017-11-18 15:53 METAR KAUG 182053Z AUTO 18005KT 10SM FEW095 OVC120 03/M11 A2975 RMK AO2 SLP080
                 T00331111 56018 =
2017-11-18 14:53 METAR KAUG 181953Z AUTO 17005KT 10SM BKN120 04/M12 A2976 RMK AO2 SLP081
                 T00391117 =
2017-11-18 13:53 METAR KAUG 181853Z AUTO 16005KT 10SM FEW120 04/M13 A2980 RMK AO2 SLP094
                 T00441128 =
2017-11-18 12:53 METAR KAUG 181753Z AUTO 14003KT 10SM CLR 04/M12 A2981 RMK AO2 SLP098 T00391122
                 10044 21044 58036 =
2017-11-18 11:53 METAR KAUG 181653Z AUTO VRB04KT 10SM CLR 04/M12 A2985 RMK AO2 SLP112 T00441122 =
2017-11-18 10:53 METAR KAUG 181553Z AUTO 15003KT 10SM CLR 02/M12 A2988 RMK AO2 SLP122 T00221117 =
2017-11-18 09:53 METAR KAUG 181453Z AUTO 15003KT 10SM CLR 01/M10 A2992 RMK AO2 SLP135 T00061100
                 58002 =
2017-11-18 08:53 METAR KAUG 181353Z AUTO 00000KT 10SM CLR 00/M11 A2992 RMK AO2 SLP137 T00001111 =
2017-11-18 07:53 METAR KAUG 181253Z AUTO 22003KT 10SM CLR M03/M10 A2993 RMK AO2 SLP139 T10281100
                 =
2017-11-18 06:53 METAR KAUG 181153Z AUTO 30005KT 10SM CLR M04/M11 A2992 RMK AO2 SLP138 T10441111
                 11028 21050 53002 =
2017-11-18 05:53 METAR KAUG 181053Z AUTO 05004KT 10SM CLR M05/M11 A2991 RMK AO2 SLP133 T10501106
                 =
2017-11-18 04:53 METAR KAUG 180953Z AUTO 00000KT 10SM CLR M04/M11 A2991 RMK AO2 SLP134 T10391111
                 =
2017-11-18 03:53 METAR KAUG 180853Z AUTO VRB03KT 10SM CLR M03/M11 A2992 RMK AO2 SLP136 T10331111
                 50002 =
2017-11-18 02:53 METAR KAUG 180753Z AUTO 28009KT 10SM CLR M03/M11 A2992 RMK AO2 SLP137 T10331106
                 =
2017-11-18 01:53 METAR KAUG 180653Z AUTO 26005KT 10SM CLR M03/M10 A2993 RMK AO2 SLP138 T10331100
                 =
2017-11-18 00:53 METAR KAUG 180553Z AUTO 27011G17KT 10SM CLR M03/M10 A2991 RMK AO2 SLP133
                 T10281100 11022 21028 51007 =
2017-11-17 23:53 METAR KAUG 180453Z AUTO 29010G19KT 10SM CLR M03/M09 A2991 RMK AO2 SLP131
                 T10281094 400391028 =

Support USWX by starting your Amazon purchase here.